sensor_id;sensor_type;location;lat;lon;timestamp;P1;durP1;ratioP1;P2;durP2;ratioP2
8252;SDS011;61313;48.396;10.008;2022-11-12T00:00:22;16.47;;;12.30;;
8252;SDS011;61313;48.396;10.008;2022-11-12T00:02:47;22.40;;;12.77;;
8252;SDS011;61313;48.396;10.008;2022-11-12T00:05:13;19.50;;;14.07;;
8252;SDS011;61313;48.396;10.008;2022-11-12T00:07:39;24.50;;;15.80;;
8252;SDS011;61313;48.396;10.008;2022-11-12T00:10:04;20.10;;;14.30;;
8252;SDS011;61313;48.396;10.008;2022-11-12T00:12:31;14.60;;;11.70;;
8252;SDS011;61313;48.396;10.008;2022-11-12T00:14:59;16.97;;;12.03;;
8252;SDS011;61313;48.396;10.008;2022-11-12T00:17:25;16.53;;;13.57;;
8252;SDS011;61313;48.396;10.008;2022-11-12T00:19:51;16.13;;;12.60;;
8252;SDS011;61313;48.396;10.008;2022-11-12T00:22:18;16.40;;;12.17;;
8252;SDS011;61313;48.396;10.008;2022-11-12T00:24:44;24.00;;;13.40;;
8252;SDS011;61313;48.396;10.008;2022-11-12T00:27:09;17.63;;;11.73;;
8252;SDS011;61313;48.396;10.008;2022-11-12T00:29:35;16.67;;;11.03;;
8252;SDS011;61313;48.396;10.008;2022-11-12T00:32:02;14.50;;;11.47;;
8252;SDS011;61313;48.396;10.008;2022-11-12T00:34:31;13.90;;;11.40;;
8252;SDS011;61313;48.396;10.008;2022-11-12T00:36:57;13.43;;;11.00;;
8252;SDS011;61313;48.396;10.008;2022-11-12T00:39:24;13.00;;;10.20;;
8252;SDS011;61313;48.396;10.008;2022-11-12T00:41:50;33.70;;;12.37;;
8252;SDS011;61313;48.396;10.008;2022-11-12T00:44:15;15.47;;;10.33;;
8252;SDS011;61313;48.396;10.008;2022-11-12T00:46:41;14.80;;;11.30;;
8252;SDS011;61313;48.396;10.008;2022-11-12T00:49:07;14.97;;;10.77;;
8252;SDS011;61313;48.396;10.008;2022-11-12T00:51:33;13.60;;;9.97;;
8252;SDS011;61313;48.396;10.008;2022-11-12T00:53:59;18.40;;;10.67;;
8252;SDS011;61313;48.396;10.008;2022-11-12T00:56:26;29.27;;;11.80;;
8252;SDS011;61313;48.396;10.008;2022-11-12T00:58:51;34.93;;;13.07;;
8252;SDS011;61313;48.396;10.008;2022-11-12T01:01:17;39.03;;;12.50;;
8252;SDS011;61313;48.396;10.008;2022-11-12T01:03:43;19.57;;;9.67;;
8252;SDS011;61313;48.396;10.008;2022-11-12T01:06:19;19.77;;;11.30;;
8252;SDS011;61313;48.396;10.008;2022-11-12T01:08:46;12.30;;;9.43;;
8252;SDS011;61313;48.396;10.008;2022-11-12T01:13:46;15.20;;;9.33;;
8252;SDS011;61313;48.396;10.008;2022-11-12T01:16:18;20.10;;;10.10;;
8252;SDS011;61313;48.396;10.008;2022-11-12T01:18:45;11.23;;;9.90;;
8252;SDS011;61313;48.396;10.008;2022-11-12T01:21:12;12.23;;;10.60;;
8252;SDS011;61313;48.396;10.008;2022-11-12T01:23:40;16.20;;;10.20;;
8252;SDS011;61313;48.396;10.008;2022-11-12T01:26:08;11.23;;;8.83;;
8252;SDS011;61313;48.396;10.008;2022-11-12T01:28:35;11.10;;;8.73;;
8252;SDS011;61313;48.396;10.008;2022-11-12T01:31:09;14.03;;;9.43;;
8252;SDS011;61313;48.396;10.008;2022-11-12T01:33:41;12.37;;;8.43;;
8252;SDS011;61313;48.396;10.008;2022-11-12T01:36:07;14.03;;;8.40;;
8252;SDS011;61313;48.396;10.008;2022-11-12T01:38:34;14.60;;;9.47;;
8252;SDS011;61313;48.396;10.008;2022-11-12T01:41:01;11.37;;;9.43;;
8252;SDS011;61313;48.396;10.008;2022-11-12T01:43:27;17.90;;;10.17;;
8252;SDS011;61313;48.396;10.008;2022-11-12T01:45:53;17.60;;;9.90;;
8252;SDS011;61313;48.396;10.008;2022-11-12T01:50:49;13.10;;;9.27;;
8252;SDS011;61313;48.396;10.008;2022-11-12T01:53:15;12.70;;;10.40;;
8252;SDS011;61313;48.396;10.008;2022-11-12T01:55:42;24.67;;;11.70;;
8252;SDS011;61313;48.396;10.008;2022-11-12T01:58:09;14.10;;;7.80;;
8252;SDS011;61313;48.396;10.008;2022-11-12T02:00:36;14.33;;;10.20;;
8252;SDS011;61313;48.396;10.008;2022-11-12T02:03:04;17.47;;;9.70;;
8252;SDS011;61313;48.396;10.008;2022-11-12T02:05:36;33.57;;;11.57;;
8252;SDS011;61313;48.396;10.008;2022-11-12T02:08:03;26.33;;;10.93;;
8252;SDS011;61313;48.396;10.008;2022-11-12T02:10:30;24.57;;;10.87;;
8252;SDS011;61313;48.396;10.008;2022-11-12T02:12:55;18.67;;;11.20;;
8252;SDS011;61313;48.396;10.008;2022-11-12T02:15:40;14.40;;;9.03;;
8252;SDS011;61313;48.396;10.008;2022-11-12T02:18:06;13.80;;;9.23;;
8252;SDS011;61313;48.396;10.008;2022-11-12T02:20:36;16.40;;;9.97;;
8252;SDS011;61313;48.396;10.008;2022-11-12T02:23:03;12.87;;;9.23;;
8252;SDS011;61313;48.396;10.008;2022-11-12T02:25:30;12.73;;;8.73;;
8252;SDS011;61313;48.396;10.008;2022-11-12T02:27:57;24.10;;;11.10;;
8252;SDS011;61313;48.396;10.008;2022-11-12T02:30:35;23.50;;;9.90;;
8252;SDS011;61313;48.396;10.008;2022-11-12T02:33:05;15.77;;;9.63;;
8252;SDS011;61313;48.396;10.008;2022-11-12T02:35:31;12.30;;;9.50;;
8252;SDS011;61313;48.396;10.008;2022-11-12T02:37:57;14.90;;;9.60;;
8252;SDS011;61313;48.396;10.008;2022-11-12T02:40:23;22.43;;;10.60;;
8252;SDS011;61313;48.396;10.008;2022-11-12T02:42:49;11.77;;;8.47;;
8252;SDS011;61313;48.396;10.008;2022-11-12T02:45:15;10.07;;;7.43;;
8252;SDS011;61313;48.396;10.008;2022-11-12T02:47:41;24.93;;;9.57;;
8252;SDS011;61313;48.396;10.008;2022-11-12T02:50:07;22.80;;;8.70;;
8252;SDS011;61313;48.396;10.008;2022-11-12T02:52:33;21.90;;;9.20;;
8252;SDS011;61313;48.396;10.008;2022-11-12T02:54:59;14.00;;;9.40;;
8252;SDS011;61313;48.396;10.008;2022-11-12T02:57:25;11.77;;;7.83;;
8252;SDS011;61313;48.396;10.008;2022-11-12T02:59:51;10.90;;;8.63;;
8252;SDS011;61313;48.396;10.008;2022-11-12T03:02:17;24.93;;;8.40;;
8252;SDS011;61313;48.396;10.008;2022-11-12T03:04:42;13.70;;;8.83;;
8252;SDS011;61313;48.396;10.008;2022-11-12T03:07:08;12.00;;;7.70;;
8252;SDS011;61313;48.396;10.008;2022-11-12T03:09:34;11.77;;;8.93;;
8252;SDS011;61313;48.396;10.008;2022-11-12T03:11:59;10.53;;;7.93;;
8252;SDS011;61313;48.396;10.008;2022-11-12T03:14:25;9.63;;;8.03;;
8252;SDS011;61313;48.396;10.008;2022-11-12T03:16:51;10.47;;;7.90;;
8252;SDS011;61313;48.396;10.008;2022-11-12T03:19:16;14.90;;;8.57;;
8252;SDS011;61313;48.396;10.008;2022-11-12T03:21:42;16.23;;;8.33;;
8252;SDS011;61313;48.396;10.008;2022-11-12T03:24:07;11.10;;;7.50;;
8252;SDS011;61313;48.396;10.008;2022-11-12T03:26:33;16.47;;;8.70;;
8252;SDS011;61313;48.396;10.008;2022-11-12T03:28:59;10.30;;;7.87;;
8252;SDS011;61313;48.396;10.008;2022-11-12T03:31:24;17.47;;;8.57;;
8252;SDS011;61313;48.396;10.008;2022-11-12T03:33:50;14.43;;;8.30;;
8252;SDS011;61313;48.396;10.008;2022-11-12T03:36:16;9.53;;;7.17;;
8252;SDS011;61313;48.396;10.008;2022-11-12T03:38:42;10.33;;;8.40;;
8252;SDS011;61313;48.396;10.008;2022-11-12T03:41:07;10.53;;;8.13;;
8252;SDS011;61313;48.396;10.008;2022-11-12T03:43:33;25.07;;;9.90;;
8252;SDS011;61313;48.396;10.008;2022-11-12T03:45:59;15.47;;;7.50;;
8252;SDS011;61313;48.396;10.008;2022-11-12T03:48:25;14.00;;;8.40;;
8252;SDS011;61313;48.396;10.008;2022-11-12T03:50:51;13.00;;;8.37;;
8252;SDS011;61313;48.396;10.008;2022-11-12T03:53:21;18.10;;;7.80;;
8252;SDS011;61313;48.396;10.008;2022-11-12T03:55:47;12.90;;;7.53;;
8252;SDS011;61313;48.396;10.008;2022-11-12T03:58:12;9.50;;;7.00;;
8252;SDS011;61313;48.396;10.008;2022-11-12T04:00:38;27.20;;;9.17;;
8252;SDS011;61313;48.396;10.008;2022-11-12T04:03:04;15.77;;;8.23;;
8252;SDS011;61313;48.396;10.008;2022-11-12T04:05:30;16.10;;;7.40;;
8252;SDS011;61313;48.396;10.008;2022-11-12T04:08:15;17.23;;;7.63;;
8252;SDS011;61313;48.396;10.008;2022-11-12T04:11:02;23.33;;;9.10;;
8252;SDS011;61313;48.396;10.008;2022-11-12T04:13:32;10.33;;;7.00;;
8252;SDS011;61313;48.396;10.008;2022-11-12T04:16:00;12.37;;;7.40;;
8252;SDS011;61313;48.396;10.008;2022-11-12T04:18:46;10.63;;;7.70;;
8252;SDS011;61313;48.396;10.008;2022-11-12T04:24:15;12.43;;;7.43;;
8252;SDS011;61313;48.396;10.008;2022-11-12T04:27:04;9.90;;;6.47;;
8252;SDS011;61313;48.396;10.008;2022-11-12T04:29:31;11.63;;;7.30;;
8252;SDS011;61313;48.396;10.008;2022-11-12T04:32:15;9.30;;;6.67;;
8252;SDS011;61313;48.396;10.008;2022-11-12T04:34:41;12.70;;;8.40;;
8252;SDS011;61313;48.396;10.008;2022-11-12T04:37:07;10.03;;;6.80;;
8252;SDS011;61313;48.396;10.008;2022-11-12T04:39:32;14.53;;;7.73;;
8252;SDS011;61313;48.396;10.008;2022-11-12T04:41:58;11.23;;;7.40;;
8252;SDS011;61313;48.396;10.008;2022-11-12T04:44:43;13.77;;;7.40;;
8252;SDS011;61313;48.396;10.008;2022-11-12T04:47:26;26.20;;;8.70;;
8252;SDS011;61313;48.396;10.008;2022-11-12T04:49:59;18.10;;;8.57;;
8252;SDS011;61313;48.396;10.008;2022-11-12T04:52:25;13.60;;;8.30;;
8252;SDS011;61313;48.396;10.008;2022-11-12T04:54:53;13.47;;;7.40;;
8252;SDS011;61313;48.396;10.008;2022-11-12T04:57:19;17.03;;;7.33;;
8252;SDS011;61313;48.396;10.008;2022-11-12T04:59:45;11.33;;;8.83;;
8252;SDS011;61313;48.396;10.008;2022-11-12T05:02:11;8.73;;;6.90;;
8252;SDS011;61313;48.396;10.008;2022-11-12T05:04:36;11.33;;;7.20;;
8252;SDS011;61313;48.396;10.008;2022-11-12T05:07:02;9.77;;;7.30;;
8252;SDS011;61313;48.396;10.008;2022-11-12T05:09:28;16.30;;;8.07;;
8252;SDS011;61313;48.396;10.008;2022-11-12T05:11:54;10.70;;;7.90;;
8252;SDS011;61313;48.396;10.008;2022-11-12T05:14:21;9.63;;;7.70;;
8252;SDS011;61313;48.396;10.008;2022-11-12T05:16:47;13.53;;;7.60;;
8252;SDS011;61313;48.396;10.008;2022-11-12T05:19:13;13.63;;;7.30;;
8252;SDS011;61313;48.396;10.008;2022-11-12T05:21:39;20.03;;;8.03;;
8252;SDS011;61313;48.396;10.008;2022-11-12T05:24:23;11.67;;;7.87;;
8252;SDS011;61313;48.396;10.008;2022-11-12T05:26:49;18.13;;;7.63;;
8252;SDS011;61313;48.396;10.008;2022-11-12T05:29:16;35.47;;;9.90;;
8252;SDS011;61313;48.396;10.008;2022-11-12T05:31:42;19.20;;;7.93;;
8252;SDS011;61313;48.396;10.008;2022-11-12T05:34:08;33.20;;;8.60;;
8252;SDS011;61313;48.396;10.008;2022-11-12T05:36:34;11.50;;;7.63;;
8252;SDS011;61313;48.396;10.008;2022-11-12T05:38:59;11.83;;;7.47;;
8252;SDS011;61313;48.396;10.008;2022-11-12T05:41:25;11.87;;;8.20;;
8252;SDS011;61313;48.396;10.008;2022-11-12T05:43:51;11.93;;;7.83;;
8252;SDS011;61313;48.396;10.008;2022-11-12T05:46:17;15.03;;;8.43;;
8252;SDS011;61313;48.396;10.008;2022-11-12T05:48:43;15.03;;;8.23;;
8252;SDS011;61313;48.396;10.008;2022-11-12T05:51:09;8.27;;;7.13;;
8252;SDS011;61313;48.396;10.008;2022-11-12T05:53:35;14.00;;;7.57;;
8252;SDS011;61313;48.396;10.008;2022-11-12T05:56:01;35.80;;;8.77;;
8252;SDS011;61313;48.396;10.008;2022-11-12T05:58:31;22.23;;;7.87;;
8252;SDS011;61313;48.396;10.008;2022-11-12T06:00:57;12.87;;;7.60;;
8252;SDS011;61313;48.396;10.008;2022-11-12T06:03:23;60.37;;;13.27;;
8252;SDS011;61313;48.396;10.008;2022-11-12T06:05:50;18.90;;;7.63;;
8252;SDS011;61313;48.396;10.008;2022-11-12T06:08:16;12.97;;;6.73;;
8252;SDS011;61313;48.396;10.008;2022-11-12T06:10:47;22.20;;;8.33;;
8252;SDS011;61313;48.396;10.008;2022-11-12T06:13:13;44.17;;;10.40;;
8252;SDS011;61313;48.396;10.008;2022-11-12T06:15:39;20.23;;;8.33;;
8252;SDS011;61313;48.396;10.008;2022-11-12T06:18:05;10.60;;;7.00;;
8252;SDS011;61313;48.396;10.008;2022-11-12T06:20:31;17.77;;;8.13;;
8252;SDS011;61313;48.396;10.008;2022-11-12T06:22:56;14.40;;;7.20;;
8252;SDS011;61313;48.396;10.008;2022-11-12T06:25:22;46.47;;;10.57;;
8252;SDS011;61313;48.396;10.008;2022-11-12T06:27:48;24.97;;;8.77;;
8252;SDS011;61313;48.396;10.008;2022-11-12T06:30:13;38.37;;;9.70;;
8252;SDS011;61313;48.396;10.008;2022-11-12T06:32:39;28.97;;;8.47;;
8252;SDS011;61313;48.396;10.008;2022-11-12T06:35:05;10.03;;;5.97;;
8252;SDS011;61313;48.396;10.008;2022-11-12T06:37:31;13.07;;;7.07;;
8252;SDS011;61313;48.396;10.008;2022-11-12T06:39:57;14.23;;;7.50;;
8252;SDS011;61313;48.396;10.008;2022-11-12T06:42:22;13.93;;;9.00;;
8252;SDS011;61313;48.396;10.008;2022-11-12T06:44:48;8.77;;;7.20;;
8252;SDS011;61313;48.396;10.008;2022-11-12T06:47:14;10.73;;;7.73;;
8252;SDS011;61313;48.396;10.008;2022-11-12T06:49:39;19.30;;;8.17;;
8252;SDS011;61313;48.396;10.008;2022-11-12T06:52:05;29.20;;;8.40;;
8252;SDS011;61313;48.396;10.008;2022-11-12T06:54:31;14.80;;;9.60;;
8252;SDS011;61313;48.396;10.008;2022-11-12T06:56:56;16.87;;;6.60;;
8252;SDS011;61313;48.396;10.008;2022-11-12T06:59:22;12.83;;;6.07;;
8252;SDS011;61313;48.396;10.008;2022-11-12T07:01:47;84.47;;;12.47;;
8252;SDS011;61313;48.396;10.008;2022-11-12T07:04:13;7.33;;;6.23;;
8252;SDS011;61313;48.396;10.008;2022-11-12T07:06:39;9.37;;;5.63;;
8252;SDS011;61313;48.396;10.008;2022-11-12T07:09:04;10.70;;;6.33;;
8252;SDS011;61313;48.396;10.008;2022-11-12T07:11:30;10.00;;;5.83;;
8252;SDS011;61313;48.396;10.008;2022-11-12T07:13:56;11.00;;;6.63;;
8252;SDS011;61313;48.396;10.008;2022-11-12T07:16:22;20.47;;;7.10;;
8252;SDS011;61313;48.396;10.008;2022-11-12T07:18:48;20.70;;;7.40;;
8252;SDS011;61313;48.396;10.008;2022-11-12T07:21:17;22.00;;;6.30;;
8252;SDS011;61313;48.396;10.008;2022-11-12T07:23:44;16.43;;;6.20;;
8252;SDS011;61313;48.396;10.008;2022-11-12T07:26:29;15.53;;;7.10;;
8252;SDS011;61313;48.396;10.008;2022-11-12T07:28:54;20.70;;;7.80;;
8252;SDS011;61313;48.396;10.008;2022-11-12T07:31:23;14.60;;;7.20;;
8252;SDS011;61313;48.396;10.008;2022-11-12T07:33:49;23.47;;;7.43;;
8252;SDS011;61313;48.396;10.008;2022-11-12T07:36:16;12.30;;;7.00;;
8252;SDS011;61313;48.396;10.008;2022-11-12T07:38:43;37.43;;;9.20;;
8252;SDS011;61313;48.396;10.008;2022-11-12T07:41:13;12.43;;;7.10;;
8252;SDS011;61313;48.396;10.008;2022-11-12T07:43:41;31.53;;;8.93;;
8252;SDS011;61313;48.396;10.008;2022-11-12T07:48:41;17.50;;;9.57;;
8252;SDS011;61313;48.396;10.008;2022-11-12T07:51:41;9.50;;;7.60;;
8252;SDS011;61313;48.396;10.008;2022-11-12T07:54:00;11.70;;;7.83;;
8252;SDS011;61313;48.396;10.008;2022-11-12T07:56:26;24.67;;;10.07;;
8252;SDS011;61313;48.396;10.008;2022-11-12T07:58:52;18.17;;;7.67;;
8252;SDS011;61313;48.396;10.008;2022-11-12T08:03:53;10.80;;;6.50;;
8252;SDS011;61313;48.396;10.008;2022-11-12T08:06:19;12.57;;;7.47;;
8252;SDS011;61313;48.396;10.008;2022-11-12T08:08:44;8.13;;;6.17;;
8252;SDS011;61313;48.396;10.008;2022-11-12T08:11:10;13.20;;;7.33;;
8252;SDS011;61313;48.396;10.008;2022-11-12T08:13:36;22.43;;;7.70;;
8252;SDS011;61313;48.396;10.008;2022-11-12T08:16:02;10.57;;;7.50;;
8252;SDS011;61313;48.396;10.008;2022-11-12T08:18:28;19.57;;;8.47;;
8252;SDS011;61313;48.396;10.008;2022-11-12T08:21:02;10.03;;;6.83;;
8252;SDS011;61313;48.396;10.008;2022-11-12T08:23:29;10.10;;;7.40;;
8252;SDS011;61313;48.396;10.008;2022-11-12T08:25:58;11.90;;;7.93;;
8252;SDS011;61313;48.396;10.008;2022-11-12T08:28:25;23.50;;;8.27;;
8252;SDS011;61313;48.396;10.008;2022-11-12T08:30:52;34.63;;;10.10;;
8252;SDS011;61313;48.396;10.008;2022-11-12T08:33:18;21.93;;;7.70;;
8252;SDS011;61313;48.396;10.008;2022-11-12T08:35:44;13.87;;;6.97;;
8252;SDS011;61313;48.396;10.008;2022-11-12T08:38:09;9.33;;;6.43;;
8252;SDS011;61313;48.396;10.008;2022-11-12T08:40:38;15.77;;;6.83;;
8252;SDS011;61313;48.396;10.008;2022-11-12T08:43:05;21.87;;;8.63;;
8252;SDS011;61313;48.396;10.008;2022-11-12T08:45:33;50.67;;;11.30;;
8252;SDS011;61313;48.396;10.008;2022-11-12T08:48:01;83.70;;;12.80;;
8252;SDS011;61313;48.396;10.008;2022-11-12T08:50:28;27.83;;;7.20;;
8252;SDS011;61313;48.396;10.008;2022-11-12T08:53:07;20.97;;;7.70;;
8252;SDS011;61313;48.396;10.008;2022-11-12T08:55:36;12.10;;;6.47;;
8252;SDS011;61313;48.396;10.008;2022-11-12T08:58:02;15.70;;;7.30;;
8252;SDS011;61313;48.396;10.008;2022-11-12T09:00:29;20.33;;;8.47;;
8252;SDS011;61313;48.396;10.008;2022-11-12T09:03:04;26.77;;;9.17;;
8252;SDS011;61313;48.396;10.008;2022-11-12T09:05:32;35.37;;;9.77;;
8252;SDS011;61313;48.396;10.008;2022-11-12T09:08:09;23.53;;;8.17;;
8252;SDS011;61313;48.396;10.008;2022-11-12T09:10:37;15.30;;;6.67;;
8252;SDS011;61313;48.396;10.008;2022-11-12T09:13:03;29.73;;;9.67;;
8252;SDS011;61313;48.396;10.008;2022-11-12T09:15:29;9.63;;;7.00;;
8252;SDS011;61313;48.396;10.008;2022-11-12T09:17:59;16.33;;;7.20;;
8252;SDS011;61313;48.396;10.008;2022-11-12T09:20:27;12.10;;;7.57;;
8252;SDS011;61313;48.396;10.008;2022-11-12T09:22:59;12.47;;;7.30;;
8252;SDS011;61313;48.396;10.008;2022-11-12T09:25:26;10.83;;;7.23;;
8252;SDS011;61313;48.396;10.008;2022-11-12T09:27:52;8.43;;;6.83;;
8252;SDS011;61313;48.396;10.008;2022-11-12T09:30:18;11.10;;;6.80;;
8252;SDS011;61313;48.396;10.008;2022-11-12T09:32:44;6.00;;;5.10;;
8252;SDS011;61313;48.396;10.008;2022-11-12T09:35:09;6.60;;;4.97;;
8252;SDS011;61313;48.396;10.008;2022-11-12T09:37:38;7.80;;;6.77;;
8252;SDS011;61313;48.396;10.008;2022-11-12T09:40:05;7.57;;;6.77;;
8252;SDS011;61313;48.396;10.008;2022-11-12T09:42:32;13.60;;;7.37;;
8252;SDS011;61313;48.396;10.008;2022-11-12T09:45:02;63.73;;;12.50;;
8252;SDS011;61313;48.396;10.008;2022-11-12T09:47:30;261.10;;;28.83;;
8252;SDS011;61313;48.396;10.008;2022-11-12T09:52:49;19.03;;;9.37;;
8252;SDS011;61313;48.396;10.008;2022-11-12T09:55:31;37.63;;;10.47;;
8252;SDS011;61313;48.396;10.008;2022-11-12T09:58:00;7.80;;;7.00;;
8252;SDS011;61313;48.396;10.008;2022-11-12T10:00:26;17.47;;;7.23;;
8252;SDS011;61313;48.396;10.008;2022-11-12T10:03:00;18.13;;;7.87;;
8252;SDS011;61313;48.396;10.008;2022-11-12T10:05:48;11.70;;;6.70;;
8252;SDS011;61313;48.396;10.008;2022-11-12T10:10:57;11.20;;;6.97;;
8252;SDS011;61313;48.396;10.008;2022-11-12T10:13:41;6.43;;;5.53;;
8252;SDS011;61313;48.396;10.008;2022-11-12T10:21:46;62.87;;;11.33;;
8252;SDS011;61313;48.396;10.008;2022-11-12T10:24:33;18.50;;;6.80;;
8252;SDS011;61313;48.396;10.008;2022-11-12T10:27:07;70.13;;;13.57;;
8252;SDS011;61313;48.396;10.008;2022-11-12T10:29:45;24.57;;;7.53;;
8252;SDS011;61313;48.396;10.008;2022-11-12T10:32:20;10.70;;;6.17;;
8252;SDS011;61313;48.396;10.008;2022-11-12T10:34:46;6.77;;;5.90;;
8252;SDS011;61313;48.396;10.008;2022-11-12T10:37:14;15.23;;;6.70;;
8252;SDS011;61313;48.396;10.008;2022-11-12T10:39:47;152.13;;;20.00;;
8252;SDS011;61313;48.396;10.008;2022-11-12T10:42:14;56.00;;;10.50;;
8252;SDS011;61313;48.396;10.008;2022-11-12T10:44:42;12.13;;;6.53;;
8252;SDS011;61313;48.396;10.008;2022-11-12T10:47:19;11.23;;;6.00;;
8252;SDS011;61313;48.396;10.008;2022-11-12T10:50:03;20.33;;;8.00;;
8252;SDS011;61313;48.396;10.008;2022-11-12T10:52:32;31.50;;;9.80;;
8252;SDS011;61313;48.396;10.008;2022-11-12T10:55:11;33.20;;;9.87;;
8252;SDS011;61313;48.396;10.008;2022-11-12T10:57:43;10.13;;;6.47;;
8252;SDS011;61313;48.396;10.008;2022-11-12T11:02:45;37.17;;;8.50;;
8252;SDS011;61313;48.396;10.008;2022-11-12T11:07:51;11.37;;;7.23;;
8252;SDS011;61313;48.396;10.008;2022-11-12T11:10:25;15.90;;;8.73;;
8252;SDS011;61313;48.396;10.008;2022-11-12T11:18:30;127.90;;;19.27;;
8252;SDS011;61313;48.396;10.008;2022-11-12T11:23:49;29.70;;;9.40;;
8252;SDS011;61313;48.396;10.008;2022-11-12T11:31:47;9.83;;;7.83;;
8252;SDS011;61313;48.396;10.008;2022-11-12T11:37:29;17.77;;;8.47;;
8252;SDS011;61313;48.396;10.008;2022-11-12T11:40:04;15.90;;;8.90;;
8252;SDS011;61313;48.396;10.008;2022-11-12T11:43:04;13.60;;;8.40;;
8252;SDS011;61313;48.396;10.008;2022-11-12T11:53:33;16.10;;;11.70;;
8252;SDS011;61313;48.396;10.008;2022-11-12T11:56:06;16.80;;;10.77;;
8252;SDS011;61313;48.396;10.008;2022-11-12T12:07:14;22.27;;;15.23;;
8252;SDS011;61313;48.396;10.008;2022-11-12T12:20:20;62.80;;;36.27;;
8252;SDS011;61313;48.396;10.008;2022-11-12T12:23:00;61.27;;;36.20;;
8252;SDS011;61313;48.396;10.008;2022-11-12T12:25:36;59.03;;;34.57;;
8252;SDS011;61313;48.396;10.008;2022-11-12T12:30:53;41.27;;;24.67;;
8252;SDS011;61313;48.396;10.008;2022-11-12T12:41:45;23.27;;;18.57;;
8252;SDS011;61313;48.396;10.008;2022-11-12T12:44:40;25.43;;;15.97;;
8252;SDS011;61313;48.396;10.008;2022-11-12T12:47:29;18.93;;;12.83;;
8252;SDS011;61313;48.396;10.008;2022-11-12T12:50:05;15.60;;;11.13;;
8252;SDS011;61313;48.396;10.008;2022-11-12T12:55:39;12.30;;;10.13;;
8252;SDS011;61313;48.396;10.008;2022-11-12T12:58:29;12.70;;;10.17;;
8252;SDS011;61313;48.396;10.008;2022-11-12T13:01:03;12.60;;;10.53;;
8252;SDS011;61313;48.396;10.008;2022-11-12T13:14:47;13.13;;;10.40;;
8252;SDS011;61313;48.396;10.008;2022-11-12T13:17:14;12.23;;;10.63;;
8252;SDS011;61313;48.396;10.008;2022-11-12T13:32:42;56.47;;;16.70;;
8252;SDS011;61313;48.396;10.008;2022-11-12T13:42:53;20.60;;;11.23;;
8252;SDS011;61313;48.396;10.008;2022-11-12T13:45:28;16.07;;;11.70;;
8252;SDS011;61313;48.396;10.008;2022-11-12T13:47:56;14.80;;;10.57;;
8252;SDS011;61313;48.396;10.008;2022-11-12T13:50:22;13.93;;;11.10;;
8252;SDS011;61313;48.396;10.008;2022-11-12T13:52:49;13.60;;;10.60;;
8252;SDS011;61313;48.396;10.008;2022-11-12T13:55:16;12.90;;;9.83;;
8252;SDS011;61313;48.396;10.008;2022-11-12T13:57:53;26.73;;;11.80;;
8252;SDS011;61313;48.396;10.008;2022-11-12T14:02:49;31.63;;;12.77;;
8252;SDS011;61313;48.396;10.008;2022-11-12T14:05:19;14.30;;;9.97;;
8252;SDS011;61313;48.396;10.008;2022-11-12T14:19:29;18.50;;;9.90;;
8252;SDS011;61313;48.396;10.008;2022-11-12T14:22:01;16.10;;;10.63;;
8252;SDS011;61313;48.396;10.008;2022-11-12T14:24:38;10.80;;;9.70;;
8252;SDS011;61313;48.396;10.008;2022-11-12T14:27:04;12.73;;;10.80;;
8252;SDS011;61313;48.396;10.008;2022-11-12T14:29:44;11.40;;;9.90;;
8252;SDS011;61313;48.396;10.008;2022-11-12T14:32:10;12.20;;;10.60;;
8252;SDS011;61313;48.396;10.008;2022-11-12T14:34:36;16.13;;;10.20;;
8252;SDS011;61313;48.396;10.008;2022-11-12T14:37:01;14.30;;;11.00;;
8252;SDS011;61313;48.396;10.008;2022-11-12T14:39:27;36.33;;;13.87;;
8252;SDS011;61313;48.396;10.008;2022-11-12T14:41:55;18.33;;;11.97;;
8252;SDS011;61313;48.396;10.008;2022-11-12T14:44:35;13.53;;;11.07;;
8252;SDS011;61313;48.396;10.008;2022-11-12T14:47:02;14.47;;;12.10;;
8252;SDS011;61313;48.396;10.008;2022-11-12T14:54:55;11.53;;;10.33;;
8252;SDS011;61313;48.396;10.008;2022-11-12T14:57:25;15.90;;;10.73;;
8252;SDS011;61313;48.396;10.008;2022-11-12T14:59:52;12.60;;;10.70;;
8252;SDS011;61313;48.396;10.008;2022-11-12T15:02:21;17.43;;;12.23;;
8252;SDS011;61313;48.396;10.008;2022-11-12T15:04:53;12.17;;;9.87;;
8252;SDS011;61313;48.396;10.008;2022-11-12T15:08:08;11.90;;;10.60;;
8252;SDS011;61313;48.396;10.008;2022-11-12T15:10:28;13.07;;;11.67;;
8252;SDS011;61313;48.396;10.008;2022-11-12T15:16:15;12.87;;;11.53;;
8252;SDS011;61313;48.396;10.008;2022-11-12T15:18:34;14.10;;;12.00;;
8252;SDS011;61313;48.396;10.008;2022-11-12T15:21:19;22.93;;;13.90;;
8252;SDS011;61313;48.396;10.008;2022-11-12T15:24:32;17.97;;;12.80;;
8252;SDS011;61313;48.396;10.008;2022-11-12T15:26:44;26.90;;;13.70;;
8252;SDS011;61313;48.396;10.008;2022-11-12T15:29:17;22.30;;;13.23;;
8252;SDS011;61313;48.396;10.008;2022-11-12T15:36:48;44.30;;;15.77;;
8252;SDS011;61313;48.396;10.008;2022-11-12T15:39:14;15.17;;;10.77;;
8252;SDS011;61313;48.396;10.008;2022-11-12T15:41:39;53.87;;;14.03;;
8252;SDS011;61313;48.396;10.008;2022-11-12T15:44:07;13.07;;;11.77;;
8252;SDS011;61313;48.396;10.008;2022-11-12T15:46:34;24.63;;;12.47;;
8252;SDS011;61313;48.396;10.008;2022-11-12T15:49:01;44.40;;;15.77;;
8252;SDS011;61313;48.396;10.008;2022-11-12T15:51:27;18.97;;;13.07;;
8252;SDS011;61313;48.396;10.008;2022-11-12T15:53:53;27.67;;;13.07;;
8252;SDS011;61313;48.396;10.008;2022-11-12T15:56:18;62.43;;;14.50;;
8252;SDS011;61313;48.396;10.008;2022-11-12T15:58:47;23.60;;;12.33;;
8252;SDS011;61313;48.396;10.008;2022-11-12T16:01:13;37.57;;;13.97;;
8252;SDS011;61313;48.396;10.008;2022-11-12T16:03:38;16.50;;;12.10;;
8252;SDS011;61313;48.396;10.008;2022-11-12T16:06:04;37.43;;;14.70;;
8252;SDS011;61313;48.396;10.008;2022-11-12T16:08:30;15.03;;;12.50;;
8252;SDS011;61313;48.396;10.008;2022-11-12T16:10:56;17.57;;;14.50;;
8252;SDS011;61313;48.396;10.008;2022-11-12T16:13:26;17.40;;;13.60;;
8252;SDS011;61313;48.396;10.008;2022-11-12T16:15:54;23.27;;;12.83;;
8252;SDS011;61313;48.396;10.008;2022-11-12T16:18:20;16.90;;;12.70;;
8252;SDS011;61313;48.396;10.008;2022-11-12T16:20:46;15.30;;;12.63;;
8252;SDS011;61313;48.396;10.008;2022-11-12T16:23:13;15.93;;;13.10;;
8252;SDS011;61313;48.396;10.008;2022-11-12T16:25:39;14.40;;;12.77;;
8252;SDS011;61313;48.396;10.008;2022-11-12T16:28:13;22.83;;;13.33;;
8252;SDS011;61313;48.396;10.008;2022-11-12T16:30:41;15.07;;;13.00;;
8252;SDS011;61313;48.396;10.008;2022-11-12T16:33:09;16.63;;;12.03;;
8252;SDS011;61313;48.396;10.008;2022-11-12T16:35:35;42.53;;;15.17;;
8252;SDS011;61313;48.396;10.008;2022-11-12T16:38:01;16.73;;;13.17;;
8252;SDS011;61313;48.396;10.008;2022-11-12T16:40:28;17.60;;;13.33;;
8252;SDS011;61313;48.396;10.008;2022-11-12T16:42:55;16.90;;;12.97;;
8252;SDS011;61313;48.396;10.008;2022-11-12T16:45:21;16.47;;;11.30;;
8252;SDS011;61313;48.396;10.008;2022-11-12T16:47:49;12.87;;;10.63;;
8252;SDS011;61313;48.396;10.008;2022-11-12T16:50:19;12.00;;;10.10;;
8252;SDS011;61313;48.396;10.008;2022-11-12T16:52:50;15.17;;;11.77;;
8252;SDS011;61313;48.396;10.008;2022-11-12T16:55:17;20.20;;;15.23;;
8252;SDS011;61313;48.396;10.008;2022-11-12T16:57:43;15.57;;;12.10;;
8252;SDS011;61313;48.396;10.008;2022-11-12T17:00:10;14.03;;;10.80;;
8252;SDS011;61313;48.396;10.008;2022-11-12T17:02:37;14.60;;;12.30;;
8252;SDS011;61313;48.396;10.008;2022-11-12T17:05:04;25.23;;;12.20;;
8252;SDS011;61313;48.396;10.008;2022-11-12T17:07:32;14.40;;;10.40;;